createdAt,value
2023-01-27T00:00:50.769Z,96324.81
2023-01-27T00:03:19.108Z,96318.97
2023-01-27T00:05:47.177Z,96316.53
2023-01-27T00:08:27.981Z,96322.13
2023-01-27T00:11:14.393Z,96322.03
2023-01-27T00:13:41.851Z,96310.66
2023-01-27T00:16:09.389Z,96319.28
2023-01-27T00:18:36.890Z,96320.97
2023-01-27T00:21:22.739Z,96327.63
2023-01-27T00:24:08.296Z,96316.25
2023-01-27T00:26:37.157Z,96312.53
2023-01-27T00:29:04.620Z,96318.03
2023-01-27T00:31:49.495Z,96319.22
2023-01-27T00:34:17.007Z,96314.47
2023-01-27T00:36:44.594Z,96310.28
2023-01-27T00:39:13.069Z,96303.88
2023-01-27T00:41:41.953Z,96308.50
2023-01-27T00:44:12.962Z,96303.47
2023-01-27T00:46:40.747Z,96311.88
2023-01-27T00:49:08.532Z,96315.53
2023-01-27T00:51:36.867Z,96313.47
2023-01-27T00:54:05.073Z,96312.31
2023-01-27T00:56:32.948Z,96322.72
2023-01-27T00:59:01.991Z,96310.66
2023-01-27T01:01:29.576Z,96324.06
2023-01-27T01:03:58.736Z,96318.84
2023-01-27T01:06:26.622Z,96318.38
2023-01-27T01:08:54.395Z,96324.81
2023-01-27T01:11:22.383Z,96324.25
2023-01-27T01:13:50.397Z,96321.28
2023-01-27T01:16:20.726Z,96330.13
2023-01-27T01:18:49.147Z,96330.84
2023-01-27T01:21:16.977Z,96334.88
2023-01-27T01:23:46.405Z,96330.03
2023-01-27T01:26:16.058Z,96334.97
2023-01-27T01:28:44.645Z,96335.59
2023-01-27T01:31:13.640Z,96331.91
2023-01-27T01:33:42.489Z,96335.56
2023-01-27T01:36:12.633Z,96335.44
2023-01-27T01:38:40.458Z,96337.44
2023-01-27T01:41:09.384Z,96329.84
2023-01-27T01:43:36.897Z,96328.00
2023-01-27T01:46:04.906Z,96329.69
2023-01-27T01:48:35.936Z,96327.69
2023-01-27T01:51:10.720Z,96331.44
2023-01-27T01:53:42.826Z,96327.22
2023-01-27T01:56:15.474Z,96330.38
2023-01-27T01:58:45.807Z,96316.63
2023-01-27T02:01:15.959Z,96319.13
2023-01-27T02:03:48.227Z,96316.94
2023-01-27T02:06:17.244Z,96318.88
2023-01-27T02:08:47.157Z,96317.59
2023-01-27T02:11:14.649Z,96314.97
2023-01-27T02:13:43.511Z,96310.47
2023-01-27T02:16:12.317Z,96306.44
2023-01-27T02:18:41.629Z,96316.66
2023-01-27T02:21:09.577Z,96317.94
2023-01-27T02:23:54.363Z,96329.47
2023-01-27T02:26:26.521Z,96316.59
2023-01-27T02:28:56.896Z,96311.19
2023-01-27T02:31:25.343Z,96314.72
2023-01-27T02:33:58.945Z,96307.81
2023-01-27T02:36:28.500Z,96297.78
2023-01-27T02:38:57.716Z,96296.41
2023-01-27T02:41:30.255Z,96302.50
2023-01-27T02:43:57.793Z,96301.78
2023-01-27T02:46:25.389Z,96305.75
2023-01-27T02:48:53.547Z,96302.38
2023-01-27T02:51:21.276Z,96290.69
2023-01-27T02:53:48.771Z,96290.88
2023-01-27T02:56:16.265Z,96284.19
2023-01-27T02:58:45.179Z,96293.31
2023-01-27T03:01:12.726Z,96290.22
2023-01-27T03:03:46.828Z,96287.50
2023-01-27T03:06:14.847Z,96307.94
2023-01-27T03:08:42.958Z,96305.72
2023-01-27T03:11:11.087Z,96305.81
2023-01-27T03:13:38.918Z,96306.22
2023-01-27T03:16:25.600Z,96309.56
2023-01-27T03:18:56.378Z,96318.47
2023-01-27T03:21:23.916Z,96310.56
2023-01-27T03:23:51.526Z,96300.16
2023-01-27T03:26:19.049Z,96302.88
2023-01-27T03:29:06.555Z,96313.28
2023-01-27T03:31:35.466Z,96308.78
2023-01-27T03:34:02.982Z,96311.75
2023-01-27T03:36:48.229Z,96305.66
2023-01-27T03:39:33.589Z,96306.97
2023-01-27T03:42:18.573Z,96310.59
2023-01-27T03:45:03.428Z,96305.28
2023-01-27T03:47:32.727Z,96303.78
2023-01-27T03:50:00.221Z,96297.38
2023-01-27T03:52:27.710Z,96290.75
2023-01-27T03:54:55.161Z,96287.56
2023-01-27T03:57:22.633Z,96292.78
2023-01-27T03:59:50.101Z,96286.03
2023-01-27T04:02:35.171Z,96287.59
2023-01-27T04:05:21.752Z,96292.31
2023-01-27T04:07:49.231Z,96289.19
2023-01-27T04:10:17.331Z,96288.50
2023-01-27T04:12:43.863Z,96287.69
2023-01-27T04:15:11.923Z,96287.25
2023-01-27T04:17:41.903Z,96286.09
2023-01-27T04:20:14.155Z,96287.56
2023-01-27T04:22:41.635Z,96278.09
2023-01-27T04:25:11.082Z,96280.31
2023-01-27T04:27:39.776Z,96268.22
2023-01-27T04:30:08.863Z,96257.88
2023-01-27T04:32:36.354Z,96271.06
2023-01-27T04:35:03.876Z,96276.25
2023-01-27T04:37:32.967Z,96279.88
2023-01-27T04:40:00.464Z,96290.69
2023-01-27T04:42:28.099Z,96287.13
2023-01-27T04:44:55.578Z,96285.59
2023-01-27T04:47:23.061Z,96284.75
2023-01-27T04:49:50.652Z,96294.44
2023-01-27T04:52:18.131Z,96302.94
2023-01-27T04:54:46.932Z,96304.41
2023-01-27T04:57:14.493Z,96304.00
2023-01-27T04:59:41.970Z,96306.22
2023-01-27T05:02:09.597Z,96313.34
2023-01-27T05:04:37.096Z,96307.69
2023-01-27T05:07:05.915Z,96300.50
2023-01-27T05:09:33.373Z,96311.63
2023-01-27T05:12:02.182Z,96321.06
2023-01-27T05:14:29.641Z,96314.78
2023-01-27T05:16:57.141Z,96326.75
2023-01-27T05:19:24.740Z,96322.00
2023-01-27T05:21:52.202Z,96328.16
2023-01-27T05:24:19.683Z,96330.31
2023-01-27T05:26:47.342Z,96333.94
2023-01-27T05:29:16.184Z,96334.13
2023-01-27T05:31:43.669Z,96339.72
2023-01-27T05:34:11.293Z,96341.75
2023-01-27T05:36:38.787Z,96349.75
2023-01-27T05:39:08.799Z,96345.31
2023-01-27T05:41:36.502Z,96352.72
2023-01-27T05:44:04.147Z,96350.31
2023-01-27T05:46:33.793Z,96356.91
2023-01-27T05:49:04.168Z,96355.41
2023-01-27T05:51:34.112Z,96357.53
2023-01-27T05:54:01.846Z,96353.97
2023-01-27T05:56:29.376Z,96347.88
2023-01-27T05:58:58.231Z,96354.56
2023-01-27T06:01:28.547Z,96359.03
2023-01-27T06:03:57.957Z,96362.81
2023-01-27T06:06:27.345Z,96371.16
2023-01-27T06:08:55.340Z,96364.34
2023-01-27T06:11:24.320Z,96359.78
2023-01-27T06:13:53.119Z,96366.31
2023-01-27T06:16:22.502Z,96363.31
2023-01-27T06:18:50.284Z,96371.16
2023-01-27T06:21:20.809Z,96370.69
2023-01-27T06:23:48.593Z,96368.94
2023-01-27T06:26:18.694Z,96380.84
2023-01-27T06:28:46.503Z,96383.66
2023-01-27T06:31:16.842Z,96383.28
2023-01-27T06:33:44.789Z,96389.66
2023-01-27T06:36:13.770Z,96385.72
2023-01-27T06:38:42.906Z,96386.75
2023-01-27T06:41:10.668Z,96391.34
2023-01-27T06:43:38.213Z,96390.50
2023-01-27T06:46:06.371Z,96397.41
2023-01-27T06:48:34.565Z,96379.88
2023-01-27T06:51:02.118Z,96381.47
2023-01-27T06:53:29.645Z,96392.44
2023-01-27T06:56:00.056Z,96394.00
2023-01-27T06:58:27.761Z,96396.06
2023-01-27T07:00:55.516Z,96405.91
2023-01-27T07:03:23.257Z,96402.81
2023-01-27T07:05:50.949Z,96418.00
2023-01-27T07:08:18.400Z,96408.63
2023-01-27T07:10:45.849Z,96398.47
2023-01-27T07:13:15.862Z,96397.75
2023-01-27T07:15:43.777Z,96403.13
2023-01-27T07:18:12.202Z,96403.88
2023-01-27T07:20:39.740Z,96408.13
2023-01-27T07:23:07.315Z,96401.84
2023-01-27T07:25:35.855Z,96409.50
2023-01-27T07:28:03.894Z,96408.22
2023-01-27T07:30:34.294Z,96410.34
2023-01-27T07:33:04.952Z,96402.06
2023-01-27T07:35:32.618Z,96407.09
2023-01-27T07:38:00.277Z,96408.53
2023-01-27T07:40:27.719Z,96404.38
2023-01-27T07:42:58.551Z,96405.44
2023-01-27T07:45:26.455Z,96400.56
2023-01-27T07:47:55.315Z,96409.88
2023-01-27T07:50:22.747Z,96407.47
2023-01-27T07:52:50.189Z,96403.00
2023-01-27T07:55:17.817Z,96406.25
2023-01-27T07:57:45.264Z,96402.09
2023-01-27T08:00:15.454Z,96395.94
2023-01-27T08:02:43.057Z,96406.53
2023-01-27T08:05:11.860Z,96406.91
2023-01-27T08:07:39.305Z,96401.31
2023-01-27T08:10:07.049Z,96400.94
2023-01-27T08:12:34.505Z,96398.44
2023-01-27T08:15:01.968Z,96391.56
2023-01-27T08:17:29.444Z,96392.94
2023-01-27T08:19:56.896Z,96394.22
2023-01-27T08:22:25.735Z,96398.81
2023-01-27T08:24:53.207Z,96407.25
2023-01-27T08:27:20.701Z,96411.28
2023-01-27T08:29:48.215Z,96409.59
2023-01-27T08:32:15.776Z,96424.72
2023-01-27T08:34:43.232Z,96422.50
2023-01-27T08:37:10.689Z,96434.22
2023-01-27T08:39:39.491Z,96431.44
2023-01-27T08:42:07.422Z,96438.50
2023-01-27T08:44:35.068Z,96430.13
2023-01-27T08:47:02.546Z,96437.94
2023-01-27T08:49:30.050Z,96442.50
2023-01-27T08:51:57.596Z,96436.88
2023-01-27T08:54:25.094Z,96441.06
2023-01-27T08:56:53.895Z,96440.22
2023-01-27T08:59:21.361Z,96440.22
2023-01-27T09:01:48.828Z,96445.00
2023-01-27T09:04:16.314Z,96441.94
2023-01-27T09:06:44.033Z,96441.72
2023-01-27T09:09:12.366Z,96440.16
2023-01-27T09:11:43.049Z,96432.88
2023-01-27T09:14:12.499Z,96435.78
2023-01-27T09:16:40.050Z,96449.38
2023-01-27T09:19:07.561Z,96436.16
2023-01-27T09:21:35.017Z,96440.50
2023-01-27T09:24:02.527Z,96444.44
2023-01-27T09:26:30.124Z,96460.16
2023-01-27T09:28:57.620Z,96457.56
2023-01-27T09:31:26.565Z,96450.50
2023-01-27T09:33:54.090Z,96462.69
2023-01-27T09:36:22.514Z,96465.28
2023-01-27T09:38:55.167Z,96456.25
2023-01-27T09:41:37.403Z,96460.91
2023-01-27T09:44:20.707Z,96467.81
2023-01-27T09:47:07.286Z,96473.31
2023-01-27T09:49:52.320Z,96467.28
2023-01-27T09:52:47.138Z,96474.31
2023-01-27T09:55:24.939Z,96477.41
2023-01-27T09:58:00.167Z,96471.97
2023-01-27T10:00:38.914Z,96470.78
2023-01-27T10:03:23.423Z,96467.94
2023-01-27T10:06:04.983Z,96469.47
2023-01-27T10:08:49.889Z,96469.84
2023-01-27T10:11:22.461Z,96469.78
2023-01-27T10:14:06.704Z,96461.56
2023-01-27T10:16:51.973Z,96470.03
2023-01-27T10:19:35.565Z,96471.97
2023-01-27T10:22:16.465Z,96486.28
2023-01-27T10:25:03.999Z,96472.28
2023-01-27T10:27:36.740Z,96484.75
2023-01-27T10:30:13.949Z,96487.16
2023-01-27T10:32:45.422Z,96498.16
2023-01-27T10:35:19.251Z,96496.22
2023-01-27T10:37:57.164Z,96490.56
2023-01-27T10:40:34.895Z,96498.53
2023-01-27T10:43:07.211Z,96501.25
2023-01-27T10:45:39.683Z,96485.22
2023-01-27T10:48:18.336Z,96483.34
2023-01-27T10:50:51.492Z,96480.19
2023-01-27T10:53:23.507Z,96482.72
2023-01-27T10:55:59.444Z,96479.91
2023-01-27T10:58:41.047Z,96482.72
2023-01-27T11:01:21.030Z,96470.06
2023-01-27T11:03:55.380Z,96476.94
2023-01-27T11:06:26.166Z,96478.41
2023-01-27T11:09:02.429Z,96478.81
2023-01-27T11:11:45.359Z,96483.25
2023-01-27T11:14:26.500Z,96482.91
2023-01-27T11:16:59.117Z,96480.84
2023-01-27T11:19:41.529Z,96477.66
2023-01-27T11:22:20.616Z,96455.00
2023-01-27T11:24:54.051Z,96441.91
2023-01-27T11:27:30.954Z,96449.72
2023-01-27T11:30:04.318Z,96450.16
2023-01-27T11:32:50.059Z,96457.44
2023-01-27T11:35:17.771Z,96452.72
2023-01-27T11:37:48.927Z,96455.88
2023-01-27T11:40:19.878Z,96458.81
2023-01-27T11:42:47.670Z,96449.47
2023-01-27T11:45:17.586Z,96444.16
2023-01-27T11:47:46.700Z,96443.88
2023-01-27T11:50:17.016Z,96438.66
2023-01-27T11:52:49.080Z,96438.66
2023-01-27T11:55:20.120Z,96435.72
2023-01-27T11:57:52.486Z,96448.44
2023-01-27T12:00:24.916Z,96443.22
2023-01-27T12:03:00.388Z,96451.69
2023-01-27T12:05:32.009Z,96446.75
2023-01-27T12:08:03.610Z,96447.50
2023-01-27T12:10:33.625Z,96449.50
2023-01-27T12:13:08.256Z,96451.75
2023-01-27T12:15:36.292Z,96453.09
2023-01-27T12:18:09.843Z,96454.50
2023-01-27T12:20:40.258Z,96450.47
2023-01-27T12:23:21.134Z,96445.06
2023-01-27T12:25:54.909Z,96445.94
2023-01-27T12:28:27.000Z,96436.09
2023-01-27T12:30:57.541Z,96431.00
2023-01-27T12:33:30.036Z,96421.31
2023-01-27T12:36:00.006Z,96426.19
2023-01-27T12:38:35.286Z,96422.00
2023-01-27T12:41:05.446Z,96420.41
2023-01-27T12:43:32.975Z,96411.28
2023-01-27T12:46:07.105Z,96407.41
2023-01-27T12:48:36.273Z,96410.47
2023-01-27T12:51:14.441Z,96406.59
2023-01-27T12:53:44.205Z,96411.47
2023-01-27T12:56:14.670Z,96394.91
2023-01-27T12:58:44.627Z,96398.97
2023-01-27T13:01:31.047Z,96403.41
2023-01-27T13:04:01.833Z,96397.47
2023-01-27T13:06:35.184Z,96395.38
2023-01-27T13:09:04.404Z,96406.72
2023-01-27T13:11:37.221Z,96406.00
2023-01-27T13:14:09.102Z,96414.63
2023-01-27T13:16:38.753Z,96412.13
2023-01-27T13:19:17.962Z,96406.25
2023-01-27T13:21:49.230Z,96410.38
2023-01-27T13:24:21.906Z,96412.41
2023-01-27T13:26:51.481Z,96415.59
2023-01-27T13:29:25.022Z,96422.16
2023-01-27T13:31:58.567Z,96419.09
2023-01-27T13:34:34.281Z,96413.19
2023-01-27T13:37:08.832Z,96409.53
2023-01-27T13:39:54.885Z,96423.47
2023-01-27T13:42:27.056Z,96423.53
2023-01-27T13:45:00.988Z,96424.38
2023-01-27T13:47:34.742Z,96418.66
2023-01-27T13:50:09.689Z,96425.44
2023-01-27T13:52:38.163Z,96430.84
2023-01-27T13:55:12.781Z,96431.00
2023-01-27T13:57:52.993Z,96431.63
2023-01-27T14:00:23.829Z,96436.59
2023-01-27T14:03:21.761Z,96439.88
2023-01-27T14:06:13.030Z,96439.59
2023-01-27T14:08:50.631Z,96430.75
2023-01-27T14:11:29.210Z,96434.34
2023-01-27T14:14:16.895Z,96434.44
2023-01-27T14:17:00.175Z,96437.63
2023-01-27T14:19:38.546Z,96437.59
2023-01-27T14:22:13.200Z,96448.69
2023-01-27T14:24:49.331Z,96453.66
2023-01-27T14:27:24.262Z,96450.38
2023-01-27T14:29:59.771Z,96457.75
2023-01-27T14:32:33.169Z,96461.19
2023-01-27T14:35:17.592Z,96460.63
2023-01-27T14:37:52.522Z,96458.38
2023-01-27T14:40:23.813Z,96459.38
2023-01-27T14:43:05.401Z,96463.34
2023-01-27T14:45:36.607Z,96461.66
2023-01-27T14:48:15.614Z,96458.13
2023-01-27T14:50:52.771Z,96452.63
2023-01-27T14:53:35.823Z,96461.28
2023-01-27T14:56:11.892Z,96455.34
2023-01-27T14:58:47.491Z,96462.69
2023-01-27T15:01:23.045Z,96469.03
2023-01-27T15:04:16.381Z,96467.81
2023-01-27T15:06:48.246Z,96470.59
2023-01-27T15:09:29.041Z,96480.66
2023-01-27T15:12:17.305Z,96481.22
2023-01-27T15:15:16.386Z,96477.66
2023-01-27T15:17:58.681Z,96476.19
2023-01-27T15:20:41.241Z,96467.22
2023-01-27T15:23:36.918Z,96477.75
2023-01-27T15:26:07.111Z,96479.50
2023-01-27T15:28:39.294Z,96484.66
2023-01-27T15:31:21.417Z,96485.31
2023-01-27T15:33:55.678Z,96489.78
2023-01-27T15:36:34.637Z,96486.06
2023-01-27T15:39:20.195Z,96476.75
2023-01-27T15:41:54.512Z,96476.38
2023-01-27T15:44:30.240Z,96476.88
2023-01-27T15:47:07.901Z,96480.59
2023-01-27T15:49:41.359Z,96490.50
2023-01-27T15:52:16.121Z,96487.91
2023-01-27T15:54:45.185Z,96480.38
2023-01-27T15:57:26.117Z,96479.72
2023-01-27T15:59:59.481Z,96475.03
2023-01-27T16:02:30.491Z,96484.50
2023-01-27T16:05:06.503Z,96481.34
2023-01-27T16:07:36.499Z,96485.88
2023-01-27T16:10:08.677Z,96493.91
2023-01-27T16:12:42.424Z,96497.78
2023-01-27T16:15:31.894Z,96501.72
2023-01-27T16:18:19.168Z,96503.13
2023-01-27T16:20:52.883Z,96503.50
2023-01-27T16:23:29.767Z,96508.78
2023-01-27T16:26:16.371Z,96513.34
2023-01-27T16:28:47.089Z,96511.41
2023-01-27T16:31:19.839Z,96502.34
2023-01-27T16:33:52.675Z,96505.81
2023-01-27T16:36:24.665Z,96513.63
2023-01-27T16:38:53.108Z,96512.13
2023-01-27T16:41:23.420Z,96511.03
2023-01-27T16:43:53.109Z,96526.50
2023-01-27T16:46:29.951Z,96517.28
2023-01-27T16:48:58.964Z,96522.59
2023-01-27T16:51:29.088Z,96525.56
2023-01-27T16:53:59.052Z,96526.69
2023-01-27T16:56:29.004Z,96516.25
2023-01-27T16:59:01.557Z,96521.84
2023-01-27T17:01:35.672Z,96529.94
2023-01-27T17:04:19.251Z,96522.13
2023-01-27T17:06:48.152Z,96528.66
2023-01-27T17:09:24.561Z,96525.56
2023-01-27T17:11:53.556Z,96533.38
2023-01-27T17:14:30.296Z,96529.63
2023-01-27T17:17:00.887Z,96535.41
2023-01-27T17:19:32.521Z,96542.69
2023-01-27T17:22:02.166Z,96541.97
2023-01-27T17:24:31.811Z,96552.19
2023-01-27T17:27:03.704Z,96555.44
2023-01-27T17:29:36.108Z,96549.56
2023-01-27T17:32:05.262Z,96559.03
2023-01-27T17:34:34.459Z,96550.09
2023-01-27T17:37:15.861Z,96551.38
2023-01-27T17:39:44.082Z,96556.63
2023-01-27T17:42:16.759Z,96555.06
2023-01-27T17:44:44.618Z,96565.38
2023-01-27T17:47:15.418Z,96564.56
2023-01-27T17:49:46.076Z,96562.09
2023-01-27T17:52:20.301Z,96559.53
2023-01-27T17:54:49.248Z,96563.50
2023-01-27T17:57:21.662Z,96570.63
2023-01-27T17:59:57.747Z,96567.22
2023-01-27T18:02:28.498Z,96575.66
2023-01-27T18:05:01.236Z,96581.84
2023-01-27T18:07:29.222Z,96577.13
2023-01-27T18:09:57.843Z,96576.06
2023-01-27T18:12:34.076Z,96574.53
2023-01-27T18:15:35.117Z,96578.09
2023-01-27T18:18:04.518Z,96581.41
2023-01-27T18:20:36.030Z,96587.25
2023-01-27T18:23:07.854Z,96581.31
2023-01-27T18:25:35.353Z,96582.59
2023-01-27T18:28:03.233Z,96581.19
2023-01-27T18:30:30.844Z,96580.56
2023-01-27T18:33:03.843Z,96582.72
2023-01-27T18:35:34.874Z,96576.81
2023-01-27T18:38:04.680Z,96587.72
2023-01-27T18:40:33.859Z,96577.19
2023-01-27T18:43:03.215Z,96587.16
2023-01-27T18:45:31.138Z,96585.94
2023-01-27T18:47:59.439Z,96587.84
2023-01-27T18:50:28.075Z,96589.44
2023-01-27T18:52:56.981Z,96588.25
2023-01-27T18:55:26.355Z,96590.78
2023-01-27T18:57:55.879Z,96581.50
2023-01-27T19:00:25.139Z,96588.72
2023-01-27T19:02:56.133Z,96585.22
2023-01-27T19:05:26.501Z,96592.66
2023-01-27T19:07:53.968Z,96600.59
2023-01-27T19:10:25.749Z,96590.69
2023-01-27T19:12:53.278Z,96595.41
2023-01-27T19:15:23.705Z,96601.06
2023-01-27T19:17:52.288Z,96605.53
2023-01-27T19:20:22.738Z,96607.66
2023-01-27T19:22:51.548Z,96598.16
2023-01-27T19:25:19.096Z,96593.22
2023-01-27T19:27:51.925Z,96597.53
2023-01-27T19:30:26.751Z,96599.94
2023-01-27T19:32:55.157Z,96600.78
2023-01-27T19:35:23.580Z,96604.88
2023-01-27T19:37:52.828Z,96603.41
2023-01-27T19:40:22.583Z,96602.00
2023-01-27T19:42:51.804Z,96607.78
2023-01-27T19:45:20.805Z,96611.44
2023-01-27T19:47:49.400Z,96616.75
2023-01-27T19:50:19.933Z,96625.47
2023-01-27T19:52:47.668Z,96625.22
2023-01-27T19:55:15.751Z,96630.31
2023-01-27T19:57:44.570Z,96636.38
2023-01-27T20:00:23.157Z,96645.81
2023-01-27T20:02:51.034Z,96641.91
2023-01-27T20:05:19.070Z,96642.69
2023-01-27T20:07:46.661Z,96639.91
2023-01-27T20:10:18.062Z,96634.50
2023-01-27T20:12:46.466Z,96635.25
2023-01-27T20:15:18.189Z,96636.91
2023-01-27T20:17:45.669Z,96649.78
2023-01-27T20:20:14.256Z,96648.13
2023-01-27T20:22:41.793Z,96654.25
2023-01-27T20:25:14.364Z,96649.84
2023-01-27T20:27:42.515Z,96640.78
2023-01-27T20:30:15.613Z,96641.38
2023-01-27T20:32:44.547Z,96647.34
2023-01-27T20:35:14.378Z,96651.19
2023-01-27T20:37:42.357Z,96646.63
2023-01-27T20:40:14.216Z,96644.31
2023-01-27T20:42:41.724Z,96654.59
2023-01-27T20:45:09.989Z,96662.41
2023-01-27T20:47:37.877Z,96661.22
2023-01-27T20:50:08.371Z,96660.09
2023-01-27T20:52:36.705Z,96660.78
2023-01-27T20:55:05.008Z,96662.47
2023-01-27T20:57:32.588Z,96659.91
2023-01-27T21:00:00.117Z,96666.75
2023-01-27T21:02:29.087Z,96662.81
2023-01-27T21:04:56.775Z,96657.78
2023-01-27T21:07:26.791Z,96658.88
2023-01-27T21:09:54.992Z,96662.78
2023-01-27T21:12:22.840Z,96666.03
2023-01-27T21:14:50.292Z,96672.50
2023-01-27T21:17:18.291Z,96670.34
2023-01-27T21:19:45.759Z,96682.72
2023-01-27T21:22:13.233Z,96674.25
2023-01-27T21:24:43.101Z,96679.22
2023-01-27T21:27:10.559Z,96671.63
2023-01-27T21:29:38.021Z,96673.59
2023-01-27T21:32:06.053Z,96669.69
2023-01-27T21:34:34.521Z,96661.94
2023-01-27T21:37:01.988Z,96659.50
2023-01-27T21:39:29.454Z,96663.63
2023-01-27T21:42:16.241Z,96661.31
2023-01-27T21:45:01.720Z,96655.31
2023-01-27T21:47:29.193Z,96659.28
2023-01-27T21:50:02.747Z,96662.53
2023-01-27T21:52:33.393Z,96660.56
2023-01-27T21:55:01.903Z,96669.41
2023-01-27T21:57:30.927Z,96657.63
2023-01-27T21:59:59.314Z,96663.69
2023-01-27T22:02:27.070Z,96670.31
2023-01-27T22:04:54.559Z,96667.69
2023-01-27T22:07:22.056Z,96671.00
2023-01-27T22:09:49.520Z,96662.19
2023-01-27T22:12:18.168Z,96667.63
2023-01-27T22:14:47.049Z,96669.03
2023-01-27T22:17:14.545Z,96665.19
2023-01-27T22:19:42.738Z,96664.50
2023-01-27T22:22:11.539Z,96655.69
2023-01-27T22:24:39.040Z,96653.84
2023-01-27T22:27:06.591Z,96666.72
2023-01-27T22:29:34.071Z,96651.41
2023-01-27T22:32:03.180Z,96652.78
2023-01-27T22:34:30.720Z,96662.56
2023-01-27T22:36:58.196Z,96663.09
2023-01-27T22:39:25.688Z,96661.97
2023-01-27T22:41:53.169Z,96662.47
2023-01-27T22:44:21.166Z,96667.38
2023-01-27T22:46:49.972Z,96669.91
2023-01-27T22:49:18.769Z,96667.06
2023-01-27T22:51:48.648Z,96673.66
2023-01-27T22:54:16.289Z,96661.00
2023-01-27T22:56:43.754Z,96656.59
2023-01-27T22:59:12.922Z,96659.94
2023-01-27T23:01:40.415Z,96665.38
2023-01-27T23:04:07.894Z,96657.22
2023-01-27T23:06:36.680Z,96653.69
2023-01-27T23:09:04.452Z,96664.16
2023-01-27T23:11:32.151Z,96654.41
2023-01-27T23:13:59.609Z,96660.63
2023-01-27T23:16:27.093Z,96656.25
2023-01-27T23:18:54.623Z,96663.97
2023-01-27T23:21:22.133Z,96660.56
2023-01-27T23:23:52.078Z,96657.16
2023-01-27T23:26:19.673Z,96659.91
2023-01-27T23:28:47.153Z,96666.69
2023-01-27T23:31:15.127Z,96665.53
2023-01-27T23:33:43.894Z,96647.19
2023-01-27T23:36:12.903Z,96654.09
2023-01-27T23:38:40.423Z,96656.28
2023-01-27T23:41:13.506Z,96651.28
2023-01-27T23:43:41.069Z,96655.44
2023-01-27T23:46:08.611Z,96657.84
2023-01-27T23:48:36.081Z,96650.69
2023-01-27T23:51:07.421Z,96660.50
2023-01-27T23:53:34.890Z,96646.13
2023-01-27T23:56:02.454Z,96655.34
2023-01-27T23:58:31.247Z,96644.28
